createdAt,value
2018-10-21T19:29:36.748Z,59.00
2018-10-21T19:32:04.527Z,59.30
2018-10-21T19:34:32.172Z,59.40
2018-10-21T19:36:59.938Z,60.00
2018-10-21T19:39:27.644Z,60.10
2018-10-21T19:41:55.454Z,60.30
2018-10-21T19:44:23.124Z,60.90
2018-10-21T19:46:51.639Z,61.50
2018-10-21T19:49:19.441Z,62.80
2018-10-21T19:51:47.188Z,62.20
2018-10-21T19:54:14.787Z,62.80
2018-10-21T19:56:42.465Z,62.30
2018-10-21T19:59:10.267Z,61.60
2018-10-21T20:01:38.087Z,62.50
2018-10-21T20:04:05.810Z,61.70
2018-10-21T20:06:33.462Z,62.00
2018-10-21T20:09:01.116Z,62.40
2018-10-21T20:11:28.776Z,62.50
2018-10-21T20:13:56.523Z,61.90
2018-10-21T20:16:24.200Z,62.00
2018-10-21T20:18:52.179Z,62.40
2018-10-21T20:21:19.977Z,62.10
2018-10-21T20:23:47.741Z,62.20
2018-10-21T20:26:15.518Z,62.40
2018-10-21T20:28:43.339Z,62.20
2018-10-21T20:31:10.956Z,62.50
2018-10-21T20:33:38.650Z,62.50
2018-10-21T20:36:06.195Z,61.90
2018-10-21T20:38:33.927Z,60.60
2018-10-21T20:41:01.643Z,60.50
2018-10-21T20:43:29.343Z,59.70
2018-10-21T20:45:56.952Z,59.30
2018-10-21T20:48:24.854Z,59.00
2018-10-21T20:50:52.674Z,59.20
2018-10-21T20:53:20.380Z,58.70
2018-10-21T20:55:48.062Z,58.60
2018-10-21T20:58:15.874Z,58.10
2018-10-21T21:00:43.511Z,57.90
2018-10-21T21:03:11.150Z,57.70
2018-10-21T21:05:38.819Z,57.70
2018-10-21T21:08:06.531Z,57.80
2018-10-21T21:10:34.203Z,57.80
2018-10-21T21:13:01.843Z,58.10
2018-10-21T21:15:29.613Z,57.90
2018-10-21T21:17:57.307Z,57.60
2018-10-21T21:20:25.036Z,57.50
2018-10-21T21:22:52.663Z,57.60
2018-10-21T21:25:20.314Z,57.80
2018-10-21T21:27:47.987Z,58.00
2018-10-21T21:30:15.798Z,57.40
2018-10-21T21:32:43.492Z,57.80
2018-10-21T21:35:11.200Z,57.60
2018-10-21T21:37:38.961Z,57.40
2018-10-21T21:40:07.422Z,57.30
2018-10-21T21:42:35.107Z,57.40
2018-10-21T21:45:02.971Z,57.00
2018-10-21T21:47:30.571Z,57.70
2018-10-21T21:49:58.224Z,57.40
2018-10-21T21:52:25.919Z,57.60
2018-10-21T21:54:53.627Z,57.40
2018-10-21T21:57:21.243Z,57.20
2018-10-21T21:59:48.885Z,56.80
2018-10-21T22:02:16.547Z,56.40
2018-10-21T22:04:44.240Z,56.40
2018-10-21T22:07:12.595Z,56.30
2018-10-21T22:09:40.798Z,56.10
2018-10-21T22:12:08.401Z,56.10
2018-10-21T22:14:36.186Z,56.10
2018-10-21T22:17:03.883Z,55.60
2018-10-21T22:19:31.599Z,56.10
2018-10-21T22:21:59.273Z,56.20
2018-10-21T22:24:26.893Z,55.60
2018-10-21T22:26:54.515Z,55.80
2018-10-21T22:29:22.151Z,55.90
2018-10-21T22:31:49.891Z,56.00
2018-10-21T22:34:17.812Z,55.80
2018-10-21T22:36:45.386Z,56.00
2018-10-21T22:39:13.045Z,55.60
2018-10-21T22:41:40.736Z,55.90
2018-10-21T22:44:08.460Z,55.90
2018-10-21T22:46:36.282Z,55.60
2018-10-21T22:49:04.424Z,56.10
2018-10-21T22:51:32.103Z,55.70
2018-10-21T22:53:59.858Z,56.10
2018-10-21T22:56:27.563Z,56.00
2018-10-21T22:58:55.256Z,55.50
2018-10-21T23:01:22.912Z,55.60
2018-10-21T23:03:50.616Z,55.40
2018-10-21T23:06:18.304Z,56.00
2018-10-21T23:08:45.947Z,55.60
2018-10-21T23:11:13.626Z,55.90
2018-10-21T23:13:41.287Z,55.70
2018-10-21T23:16:09.326Z,55.50
2018-10-21T23:18:37.018Z,56.00
2018-10-21T23:21:04.891Z,55.90
2018-10-21T23:23:32.565Z,56.00
2018-10-21T23:26:00.242Z,56.30
2018-10-21T23:28:27.896Z,56.60
2018-10-21T23:30:55.528Z,56.50
2018-10-21T23:33:23.160Z,56.60
2018-10-21T23:35:50.803Z,57.20
2018-10-21T23:38:18.426Z,57.40
2018-10-21T23:40:46.133Z,57.90
2018-10-21T23:43:13.755Z,58.10
2018-10-21T23:45:41.433Z,58.70
2018-10-21T23:48:09.116Z,59.00
2018-10-21T23:50:36.799Z,59.20
2018-10-21T23:53:04.870Z,59.50
2018-10-21T23:55:32.506Z,59.80
2018-10-21T23:58:00.222Z,60.10
